Time;durP1;ratioP1;P1;durP2;ratioP2;P2;SDS_P1;SDS_P2;PMS_P1;PMS_P2;Temp;Humidity;BMP_temperature;BMP_pressure;BME280_temperature;BME280_humidity;BME280_pressure;Samples;Min_cycle;Max_cycle;Signal;HPM_P1;HPM_P2
2021/05/21 00:01:15;;;;;;;4.47;0.43;;;;;;;8.20;100.00;97483.16;4993451;28;20061;-83
2021/05/21 00:04:19;;;;;;;0.30;0.30;;;;;;;8.20;100.00;97488.69;4972393;28;20403;-83
2021/05/21 00:07:22;;;;;;;0.10;0.10;;;;;;;8.18;100.00;97475.34;4986331;28;20057;-84
2021/05/21 00:10:26;;;;;;;2.20;0.35;;;;;;;8.16;100.00;97477.13;4976029;28;20569;-84
2021/05/21 00:13:29;;;;;;;0.65;0.52;;;;;;;8.17;100.00;97462.75;4975204;28;20050;-83
2021/05/21 00:16:33;;;;;;;2.67;0.40;;;;;;;8.17;100.00;97464.75;4956738;28;20423;-82
2021/05/21 00:19:37;;;;;;;0.30;0.30;;;;;;;8.21;100.00;97457.66;4956433;28;20537;-82
2021/05/21 00:22:40;;;;;;;0.10;0.10;;;;;;;8.20;100.00;97449.88;4966354;28;20054;-83
2021/05/21 00:25:44;;;;;;;0.20;0.20;;;;;;;8.21;100.00;97451.38;4966890;28;20051;-83
2021/05/21 00:28:47;;;;;;;0.20;0.20;;;;;;;8.21;100.00;97451.38;4966728;28;20070;-83
2021/05/21 00:31:51;;;;;;;0.20;0.17;;;;;;;8.20;100.00;97444.34;4975598;28;20106;-82
2021/05/21 00:34:54;;;;;;;0.55;0.55;;;;;;;8.19;100.00;97451.13;4975251;28;20062;-82
2021/05/21 00:38:05;;;;;;;0.17;0.17;;;;;;;8.19;100.00;97438.03;4961847;28;20046;-83
2021/05/21 00:41:09;;;;;;;0.15;0.13;;;;;;;8.19;100.00;97434.50;4997162;28;20065;-84
2021/05/21 00:44:13;;;;;;;0.20;0.20;;;;;;;8.18;100.00;97441.31;4995215;28;20061;-81
2021/05/21 00:47:16;;;;;;;1.40;0.38;;;;;;;8.19;100.00;97442.81;4992866;28;20061;-83
2021/05/21 00:50:21;;;;;;;1.17;0.30;;;;;;;8.22;100.00;97433.47;4993923;28;20055;-82
2021/05/21 00:53:28;;;;;;;0.20;0.20;;;;;;;8.21;100.00;97440.28;4993742;28;20053;-81
2021/05/21 00:56:33;;;;;;;0.30;0.30;;;;;;;8.21;100.00;97434.72;4994307;28;20454;-82
2021/05/21 00:59:36;;;;;;;0.10;0.10;;;;;;;8.19;100.00;97432.50;4992910;28;20058;-82
2021/05/21 01:02:40;;;;;;;0.10;0.10;;;;;;;8.17;100.00;97423.94;4994266;28;20065;-82
2021/05/21 01:05:44;;;;;;;4.13;0.28;;;;;;;8.20;100.00;97425.69;5005034;28;20053;-82
2021/05/21 01:08:47;;;;;;;0.10;0.10;;;;;;;8.22;100.00;97422.38;4993891;28;20057;-82
2021/05/21 01:11:50;;;;;;;0.30;0.15;;;;;;;8.23;100.00;97404.47;4992984;28;20065;-81
2021/05/21 01:14:57;;;;;;;0.10;0.10;;;;;;;8.25;100.00;97399.19;5012053;28;20524;-81
2021/05/21 01:18:00;;;;;;;0.17;0.17;;;;;;;8.26;100.00;97389.59;5021729;28;20060;-82
2021/05/21 01:21:04;;;;;;;4.13;0.40;;;;;;;8.26;100.00;97379.28;5021832;28;20529;-82
2021/05/21 01:24:09;;;;;;;7.63;0.30;;;;;;;8.28;100.00;97387.06;5031514;28;20049;-81
2021/05/21 01:27:13;;;;;;;0.35;0.35;;;;;;;8.29;100.00;97371.94;5032514;28;20060;-82
2021/05/21 01:30:17;;;;;;;4.95;0.47;;;;;;;8.31;100.00;97380.50;5020596;28;20052;-80
2021/05/21 01:33:21;;;;;;;1.70;0.73;;;;;;;8.30;100.00;97365.88;5032005;28;20405;-83
2021/05/21 01:36:25;;;;;;;0.17;0.17;;;;;;;8.33;100.00;97372.41;5020606;28;20049;-82
2021/05/21 01:39:34;;;;;;;0.28;0.20;;;;;;;8.34;100.00;97355.22;5032783;28;20529;-82
2021/05/21 01:42:39;;;;;;;0.15;0.15;;;;;;;8.36;100.00;97358.22;5032342;28;20076;-81
2021/05/21 01:45:43;;;;;;;0.75;0.30;;;;;;;8.40;100.00;97363.50;5032264;28;20064;-81
2021/05/21 01:48:46;;;;;;;0.95;0.57;;;;;;;8.42;100.00;97354.66;5031411;28;20056;-81
2021/05/21 01:51:59;;;;;;;0.10;0.10;;;;;;;8.44;100.00;97350.09;5031996;28;20417;-82
2021/05/21 01:55:03;;;;;;;0.43;0.30;;;;;;;8.42;100.00;97343.56;5032032;28;20060;-81
2021/05/21 01:58:07;;;;;;;0.20;0.20;;;;;;;8.43;100.00;97351.34;5019689;28;20409;-81
2021/05/21 02:01:11;;;;;;;0.20;0.20;;;;;;;8.46;100.00;97355.13;5019572;28;20061;-80
2021/05/21 02:04:15;;;;;;;0.10;0.10;;;;;;;8.49;100.00;97343.72;5031943;28;20398;-81
2021/05/21 02:07:18;;;;;;;0.35;0.30;;;;;;;8.51;100.00;97338.38;5018785;28;20417;-82
2021/05/21 02:10:23;;;;;;;0.17;0.17;;;;;;;8.46;100.00;97317.03;5019714;28;20532;-79
2021/05/21 02:13:26;;;;;;;1.20;0.30;;;;;;;8.44;100.00;97314.03;5030947;28;20056;-80
2021/05/21 02:16:30;;;;;;;1.02;0.43;;;;;;;8.43;100.00;97323.63;5030777;28;20060;-80
2021/05/21 02:19:34;;;;;;;0.40;0.40;;;;;;;8.44;100.00;97314.03;5030733;28;20687;-81
2021/05/21 02:22:39;;;;;;;0.30;0.30;;;;;;;8.44;100.00;97299.41;5031534;28;20060;-81
2021/05/21 02:25:46;;;;;;;0.20;0.20;;;;;;;8.48;100.00;97314.50;5031016;28;20521;-80
2021/05/21 02:28:49;;;;;;;0.40;0.38;;;;;;;8.51;100.00;97298.84;5018233;28;20072;-80
2021/05/21 02:31:53;;;;;;;0.20;0.20;;;;;;;8.51;100.00;97296.06;5019075;28;20060;-81
2021/05/21 02:34:57;;;;;;;0.40;0.40;;;;;;;8.51;100.00;97294.00;5031249;28;20056;-81
2021/05/21 02:38:00;;;;;;;0.10;0.10;;;;;;;8.52;100.00;97292.00;5031022;28;20052;-80
2021/05/21 02:41:05;;;;;;;0.40;0.30;;;;;;;8.53;100.00;97282.41;5031064;28;20069;-80
2021/05/21 02:44:08;;;;;;;0.10;0.10;;;;;;;8.56;100.00;97282.09;5030773;28;20056;-80
2021/05/21 02:47:12;;;;;;;0.10;0.10;;;;;;;8.56;100.00;97282.09;5031044;28;20064;-81
2021/05/21 02:50:16;;;;;;;0.35;0.35;;;;;;;8.56;100.00;97268.25;5030711;28;20048;-80
2021/05/21 02:53:20;;;;;;;0.10;0.10;;;;;;;8.56;100.00;97265.47;5029514;28;20053;-81
2021/05/21 02:56:24;;;;;;;0.20;0.20;;;;;;;8.57;100.00;97271.75;5018922;28;20524;-80
2021/05/21 02:59:27;;;;;;;0.10;0.10;;;;;;;8.54;100.00;97267.25;5031456;28;20048;-81
2021/05/21 03:02:30;;;;;;;0.20;0.20;;;;;;;8.56;100.00;97265.47;5031233;28;20113;-82
2021/05/21 03:05:34;;;;;;;0.10;0.10;;;;;;;8.54;100.00;97265.25;5032607;28;20052;-85
2021/05/21 03:08:38;;;;;;;0.55;0.45;;;;;;;8.56;100.00;97261.94;5031559;28;20080;-82
2021/05/21 03:11:41;;;;;;;0.75;0.10;;;;;;;8.51;100.00;97251.69;5032244;28;20082;-82
2021/05/21 03:14:45;;;;;;;0.10;0.10;;;;;;;8.55;100.00;97257.69;5020204;28;20053;-81
2021/05/21 03:17:49;;;;;;;0.10;0.10;;;;;;;8.52;100.00;97251.16;5018075;28;20152;-83
2021/05/21 03:20:53;;;;;;;1.02;0.52;;;;;;;8.54;100.00;97256.91;5030198;28;20409;-82
2021/05/21 03:23:56;;;;;;;0.20;0.20;;;;;;;8.50;100.00;97245.38;5030205;28;20398;-83
2021/05/21 03:27:00;;;;;;;2.58;0.40;;;;;;;8.45;100.00;97229.56;5030356;28;20079;-81
2021/05/21 03:30:09;;;;;;;0.30;0.30;;;;;;;8.46;100.00;97241.41;5030766;28;20068;-81
2021/05/21 03:33:12;;;;;;;2.90;0.20;;;;;;;8.46;100.00;97225.53;5018592;28;20068;-81
2021/05/21 03:36:16;;;;;;;0.32;0.32;;;;;;;8.44;100.00;97219.00;5030022;28;20528;-82
2021/05/21 03:39:20;;;;;;;0.13;0.10;;;;;;;8.45;100.00;97231.56;5031103;28;20057;-82
2021/05/21 03:42:24;;;;;;;1.55;0.57;;;;;;;8.48;100.00;97214.66;5035296;28;20056;-81
2021/05/21 03:45:27;;;;;;;0.10;0.10;;;;;;;8.51;100.00;97208.03;5023061;28;20045;-83
2021/05/21 03:48:31;;;;;;;7.68;0.30;;;;;;;8.51;100.00;97205.25;5034641;28;20409;-83
2021/05/21 03:51:34;;;;;;;4.90;0.95;;;;;;;8.51;100.00;97191.38;5022808;28;20076;-84
2021/05/21 03:54:38;;;;;;;4.57;0.98;;;;;;;8.43;100.00;97196.06;5035112;28;20060;-82
2021/05/21 03:57:42;;;;;;;1.85;0.93;;;;;;;8.42;100.00;97189.03;5023144;28;20068;-82
2021/05/21 04:00:45;;;;;;;0.30;0.10;;;;;;;8.40;100.00;97180.47;5035549;28;20052;-82
2021/05/21 04:03:48;;;;;;;3.60;0.77;;;;;;;8.40;100.00;97183.25;5034160;28;20532;-82
2021/05/21 04:06:51;;;;;;;4.47;0.82;;;;;;;8.42;100.00;97183.47;5034453;28;20060;-81
2021/05/21 04:09:55;;;;;;;0.35;0.35;;;;;;;8.39;100.00;97178.97;5034279;28;20065;-82
2021/05/21 04:12:59;;;;;;;0.28;0.15;;;;;;;8.36;100.00;97163.38;5035488;28;20056;-82
2021/05/21 04:16:02;;;;;;;0.30;0.30;;;;;;;8.38;100.00;97172.66;5036261;28;20057;-83
2021/05/21 04:19:05;;;;;;;5.53;0.20;;;;;;;8.37;100.00;97170.44;5035182;28;20690;-83
2021/05/21 04:22:09;;;;;;;0.40;0.10;;;;;;;8.37;100.00;97154.56;5034003;28;20056;-82
2021/05/21 04:25:13;;;;;;;0.10;0.10;;;;;;;8.37;100.00;97154.56;5033354;28;20080;-83
2021/05/21 04:28:16;;;;;;;2.90;0.20;;;;;;;8.38;100.00;97167.13;5020962;28;20053;-83
2021/05/21 04:31:20;;;;;;;0.75;0.28;;;;;;;8.38;100.00;97144.22;5020700;28;20048;-83
2021/05/21 04:34:23;;;;;;;2.95;0.47;;;;;;;8.40;100.00;97138.88;5021784;28;20422;-83
2021/05/21 04:37:27;;;;;;;0.10;0.10;;;;;;;8.38;100.00;97133.13;5033722;28;20056;-82
2021/05/21 04:40:31;;;;;;;0.28;0.25;;;;;;;8.36;100.00;97136.41;5033714;28;20060;-82
2021/05/21 04:43:34;;;;;;;0.10;0.10;;;;;;;8.35;100.00;97117.53;5034009;28;20060;-83
2021/05/21 04:46:38;;;;;;;0.93;0.40;;;;;;;8.35;100.00;97111.97;5021694;28;20714;-82
2021/05/21 04:49:42;;;;;;;0.32;0.13;;;;;;;8.33;100.00;97128.41;5034658;28;20060;-83
2021/05/21 04:52:46;;;;;;;0.40;0.40;;;;;;;8.32;100.00;97110.25;5020598;28;20080;-83
2021/05/21 04:55:49;;;;;;;0.10;0.10;;;;;;;8.33;100.00;97109.00;5021301;28;20060;-82
2021/05/21 04:58:53;;;;;;;0.47;0.22;;;;;;;8.30;100.00;97110.03;5021719;28;20524;-82
2021/05/21 05:01:57;;;;;;;0.10;0.10;;;;;;;8.29;100.00;97091.91;5034494;28;20052;-81
2021/05/21 05:05:00;;;;;;;0.80;0.22;;;;;;;8.30;100.00;97101.72;5034016;28;20076;-82
2021/05/21 05:08:03;;;;;;;0.20;0.20;;;;;;;8.33;100.00;97100.66;5031144;28;20052;-82
2021/05/21 05:11:07;;;;;;;1.13;0.20;;;;;;;8.33;100.00;97093.09;5016891;28;20044;-82
2021/05/21 05:14:12;;;;;;;3.10;0.80;;;;;;;8.33;100.00;97075.72;5021188;28;20052;-83
2021/05/21 05:17:16;;;;;;;0.40;0.40;;;;;;;8.38;100.00;97080.44;5021350;28;20049;-85
2021/05/21 05:20:22;;;;;;;0.15;0.13;;;;;;;8.37;100.00;97078.94;5031641;28;20048;-82
2021/05/21 05:23:25;;;;;;;0.45;0.32;;;;;;;8.36;100.00;97074.63;5026630;28;20512;-82
2021/05/21 05:26:29;;;;;;;0.63;0.20;;;;;;;8.35;100.00;97078.72;5031296;28;20409;-85
2021/05/21 05:29:36;;;;;;;1.48;0.63;;;;;;;8.32;100.00;97071.44;5032144;28;20060;-84
2021/05/21 05:32:40;;;;;;;1.05;0.68;;;;;;;8.33;100.00;97072.94;5032825;28;20109;-84
2021/05/21 05:35:43;;;;;;;3.80;0.63;;;;;;;8.33;100.00;97076.47;5018881;28;20053;-81
2021/05/21 05:38:46;;;;;;;1.65;0.47;;;;;;;8.34;100.00;97074.44;5032590;28;20057;-83
2021/05/21 05:41:50;;;;;;;2.85;0.28;;;;;;;8.37;100.00;97059.50;5032752;28;20057;-87
2021/05/21 05:44:54;;;;;;;0.73;0.10;;;;;;;8.37;100.00;97059.50;5019135;28;20057;-84
2021/05/21 05:47:57;;;;;;;0.57;0.32;;;;;;;8.37;100.00;97059.50;5032112;28;20073;-85
2021/05/21 05:51:01;;;;;;;0.40;0.40;;;;;;;8.33;100.00;97056.31;5020370;28;20049;-84
2021/05/21 05:54:05;;;;;;;1.35;0.40;;;;;;;8.33;100.00;97054.28;5031509;28;20532;-85
2021/05/21 05:57:08;;;;;;;0.20;0.20;;;;;;;8.35;100.00;97050.97;5019956;28;20056;-86
2021/05/21 06:00:12;;;;;;;0.13;0.13;;;;;;;8.37;100.00;97051.19;5020882;28;20048;-88
2021/05/21 06:03:16;;;;;;;1.65;0.85;;;;;;;8.42;100.00;97046.84;5030868;28;20048;-88
2021/05/21 06:06:19;;;;;;;0.30;0.22;;;;;;;8.43;100.00;97046.31;5018645;28;20060;-87
2021/05/21 06:09:23;;;;;;;0.10;0.10;;;;;;;8.45;100.00;97048.53;5021631;28;20536;-90
2021/05/21 06:12:26;;;;;;;1.65;0.28;;;;;;;8.45;100.00;97052.06;5021658;28;20061;-89
2021/05/21 06:15:30;;;;;;;0.43;0.13;;;;;;;8.45;100.00;97043.75;5034110;28;20060;-89
2021/05/21 06:18:34;;;;;;;1.25;0.45;;;;;;;8.45;100.00;97043.75;5021218;28;20540;-89
2021/05/21 06:21:38;;;;;;;2.35;0.47;;;;;;;8.50;100.00;97044.94;5021343;28;20052;-88
2021/05/21 06:24:44;;;;;;;0.55;0.55;;;;;;;8.53;100.00;97039.09;5021432;28;20056;-89
2021/05/21 06:27:49;;;;;;;3.70;1.30;;;;;;;8.60;100.00;97046.78;5020759;28;20064;-89
2021/05/21 06:30:53;;;;;;;0.10;0.10;;;;;;;8.66;100.00;97041.91;5020758;28;20052;-93
2021/05/21 06:33:57;;;;;;;0.30;0.30;;;;;;;8.68;100.00;97033.78;5020860;28;20072;-89
2021/05/21 06:37:00;;;;;;;2.72;0.30;;;;;;;8.69;100.00;97035.28;5022574;28;20053;-87
2021/05/21 06:40:05;;;;;;;2.17;0.38;;;;;;;8.66;100.00;97039.13;5020272;28;20052;-88
2021/05/21 06:43:10;;;;;;;0.28;0.20;;;;;;;8.69;100.00;97040.81;5000634;28;20065;-86
2021/05/21 06:46:14;;;;;;;0.77;0.32;;;;;;;8.79;100.00;97044.66;5012252;28;20160;-86
2021/05/21 06:49:18;;;;;;;0.10;0.10;;;;;;;8.82;100.00;97037.31;5000083;28;20064;-87
2021/05/21 06:52:22;;;;;;;4.15;0.80;;;;;;;8.86;100.00;97044.03;5000634;28;20064;-88
2021/05/21 06:55:26;;;;;;;0.10;0.10;;;;;;;8.91;100.00;97029.31;5012107;28;20057;-87
2021/05/21 06:58:30;;;;;;;0.38;0.20;;;;;;;8.91;100.00;97037.66;5013481;28;20056;-84
2021/05/21 07:01:33;;;;;;;2.47;0.35;;;;;;;8.95;100.00;97040.84;5012519;28;20660;-87
2021/05/21 07:04:37;;;;;;;0.95;0.40;;;;;;;8.98;100.00;97037.03;5011564;28;20057;-85
2021/05/21 07:07:41;;;;;;;0.40;0.40;;;;;;;9.00;100.00;97036.47;5011159;28;20072;-84
2021/05/21 07:10:45;;;;;;;0.10;0.10;;;;;;;9.01;100.00;97027.59;5010609;28;20053;-84
2021/05/21 07:13:48;;;;;;;0.10;0.10;;;;;;;9.05;100.00;97028.03;5011478;28;20060;-83
2021/05/21 07:16:51;;;;;;;5.53;0.60;;;;;;;9.04;100.00;97032.09;5018760;28;20603;-81
2021/05/21 07:19:55;;;;;;;3.03;1.10;;;;;;;9.04;100.00;97031.34;5018275;28;20057;-83
2021/05/21 07:22:59;;;;;;;1.45;0.28;;;;;;;9.03;100.00;97030.59;5031368;28;20410;-82
2021/05/21 07:26:03;;;;;;;1.00;0.50;;;;;;;9.13;100.00;97028.16;5018636;28;20421;-82
2021/05/21 07:29:07;;;;;;;0.30;0.30;;;;;;;9.11;100.00;97031.47;4998580;28;20061;-82
2021/05/21 07:32:10;;;;;;;0.40;0.20;;;;;;;9.18;100.00;97034.88;4998655;28;20072;-81
2021/05/21 07:35:14;;;;;;;0.20;0.10;;;;;;;9.21;100.00;97028.25;5010977;28;20053;-81
2021/05/21 07:38:17;;;;;;;0.43;0.43;;;;;;;9.25;100.00;97023.13;5010029;28;20056;-81
2021/05/21 07:41:23;;;;;;;2.92;0.20;;;;;;;9.32;100.00;97028.03;5010672;28;20426;-81
2021/05/21 07:44:26;;;;;;;4.97;0.52;;;;;;;9.40;100.00;97015.00;5010601;28;20060;-81
2021/05/21 07:47:30;;;;;;;0.95;0.20;;;;;;;9.41;100.00;97019.25;5011015;28;20118;-82
2021/05/21 07:50:38;;;;;;;1.00;0.32;;;;;;;9.62;100.00;97028.41;4998349;28;20053;-83
2021/05/21 07:53:41;;;;;;;0.65;0.22;;;;;;;9.94;100.00;97015.81;5010629;28;20061;-81
2021/05/21 07:56:45;;;;;;;1.45;0.10;;;;;;;10.07;100.00;97011.50;5010555;28;20060;-82
2021/05/21 07:59:48;;;;;;;0.10;0.10;;;;;;;10.19;100.00;97002.38;5010848;28;20057;-83
2021/05/21 08:02:51;;;;;;;0.55;0.20;;;;;;;10.24;100.00;96997.97;5011116;28;20057;-82
2021/05/21 08:05:58;;;;;;;0.30;0.30;;;;;;;10.24;100.00;97004.28;5010575;28;20080;-81
2021/05/21 08:09:04;;;;;;;0.85;0.43;;;;;;;10.28;100.00;97009.50;4978288;28;20048;-82
2021/05/21 08:12:10;;;;;;;1.65;0.20;;;;;;;10.31;100.00;97006.38;4985278;28;20701;-82
2021/05/21 08:15:14;;;;;;;1.85;0.15;;;;;;;10.42;100.00;96997.00;4977412;28;20073;-81
2021/05/21 08:18:18;;;;;;;3.92;0.38;;;;;;;10.53;100.00;96997.47;4963332;28;20037;-80
2021/05/21 08:21:23;;;;;;;0.10;0.10;;;;;;;10.49;100.00;97007.47;4973675;28;20076;-83
2021/05/21 08:24:26;;;;;;;0.10;0.10;;;;;;;10.42;100.00;96997.75;4966227;28;20053;-87
2021/05/21 08:27:30;;;;;;;2.47;0.13;;;;;;;10.37;100.00;96995.84;4998044;28;20052;-88
2021/05/21 08:30:33;;;;;;;0.20;0.20;;;;;;;10.29;100.00;97000.59;4994120;28;21076;-86
2021/05/21 08:33:43;;;;;;;0.10;0.00;;;;;;;10.17;100.00;96995.88;5005357;28;21170;-88
2021/05/21 08:36:47;;;;;;;0.10;0.10;;;;;;;10.08;100.00;97002.59;4993901;28;20049;-86
2021/05/21 08:39:51;;;;;;;3.30;0.28;;;;;;;10.10;100.00;96997.25;4993803;28;20052;-81
2021/05/21 08:42:58;;;;;;;0.98;0.28;;;;;;;10.05;100.00;96994.63;5000021;28;20056;-81
2021/05/21 08:46:02;;;;;;;0.20;0.20;;;;;;;9.96;100.00;96995.84;4999943;28;20048;-85
2021/05/21 08:49:06;;;;;;;0.17;0.17;;;;;;;9.91;100.00;97005.03;4985227;28;20359;-80
2021/05/21 08:52:09;;;;;;;0.65;0.30;;;;;;;10.08;100.00;97008.16;5002515;28;20504;-83
2021/05/21 08:55:14;;;;;;;0.10;0.10;;;;;;;10.17;100.00;97010.53;5029418;28;20405;-83
2021/05/21 08:58:17;;;;;;;0.70;0.22;;;;;;;10.25;100.00;97008.53;5033591;28;20405;-83
2021/05/21 09:01:24;;;;;;;7.88;0.68;;;;;;;10.35;100.00;97008.84;5033395;28;20049;-82
2021/05/21 09:04:49;;;;;;;2.47;0.45;;;;;;;10.44;100.00;97020.22;5022010;28;20068;-84
2021/05/21 09:07:55;;;;;;;5.10;1.75;;;;;;;10.56;100.00;97018.66;5021446;28;20060;-82
2021/05/21 09:10:59;;;;;;;3.03;1.13;;;;;;;10.78;100.00;97022.16;5036108;28;20052;-80
2021/05/21 09:14:16;;;;;;;2.67;1.20;;;;;;;11.00;100.00;97018.78;5018649;28;20105;-80
2021/05/21 09:17:23;;;;;;;0.57;0.28;;;;;;;11.02;100.00;97022.50;5013431;28;20057;-79
2021/05/21 09:20:38;;;;;;;2.85;0.30;;;;;;;11.20;100.00;97023.53;5013814;28;20053;-82
2021/05/21 09:24:00;;;;;;;0.47;0.30;;;;;;;11.39;100.00;97035.19;5013008;28;20065;-82
2021/05/21 09:27:05;;;;;;;0.10;0.10;;;;;;;11.46;100.00;97022.59;5013150;28;20072;-78
2021/05/21 09:30:09;;;;;;;0.10;0.00;;;;;;;11.47;100.00;97024.81;5004989;28;20057;-77
2021/05/21 09:33:13;;;;;;;1.00;0.17;;;;;;;11.17;100.00;97027.44;5020754;28;20057;-77
2021/05/21 09:36:27;;;;;;;1.00;0.30;;;;;;;10.93;100.00;97022.25;5006918;28;20057;-78
2021/05/21 09:39:30;;;;;;;0.17;0.17;;;;;;;10.80;100.00;97022.34;5001160;28;20052;-77
2021/05/21 09:42:42;;;;;;;0.10;0.10;;;;;;;10.84;100.00;97019.97;5012421;28;20065;-81
2021/05/21 09:45:46;;;;;;;0.32;0.20;;;;;;;10.87;100.00;97030.03;5011793;28;20065;-80
2021/05/21 09:48:51;;;;;;;1.85;0.10;;;;;;;10.82;100.00;97023.31;4999774;28;20069;-81
2021/05/21 09:51:57;;;;;;;0.10;0.10;;;;;;;10.87;100.00;97024.47;5012462;28;20057;-80
2021/05/21 09:55:06;;;;;;;0.10;0.10;;;;;;;10.75;100.00;97017.66;4981369;28;20061;-80
2021/05/21 09:58:24;;;;;;;0.10;0.10;;;;;;;10.65;100.00;97020.94;4952639;28;20570;-81
2021/05/21 10:01:28;;;;;;;0.15;0.10;;;;;;;10.53;100.00;97025.31;4964023;28;20602;-82
2021/05/21 10:04:31;;;;;;;0.10;0.10;;;;;;;10.34;100.00;97024.78;4979331;28;20152;-79
2021/05/21 10:07:35;;;;;;;0.68;0.40;;;;;;;10.28;100.00;97038.06;4968625;28;20041;-81
2021/05/21 10:10:39;;;;;;;1.45;0.10;;;;;;;10.34;100.00;97024.78;4946405;28;21134;-80
2021/05/21 10:13:44;;;;;;;0.10;0.10;;;;;;;10.38;100.00;97033.53;4974867;28;20045;-79
2021/05/21 10:16:48;;;;;;;0.10;0.10;;;;;;;10.44;100.00;97039.69;4957003;28;20057;-81
2021/05/21 10:19:54;;;;;;;0.80;0.13;;;;;;;10.50;100.00;97031.94;4956317;28;20177;-81
2021/05/21 10:23:00;;;;;;;0.40;0.10;;;;;;;10.59;100.00;97028.69;4974380;28;20050;-77
2021/05/21 10:26:10;;;;;;;0.10;0.10;;;;;;;10.89;100.00;97033.00;4976700;28;20053;-79
2021/05/21 10:29:21;;;;;;;3.30;0.10;;;;;;;10.89;100.00;97044.91;4999152;28;20077;-82
2021/05/21 10:32:30;;;;;;;0.50;0.43;;;;;;;10.86;100.00;97037.63;4996233;28;20064;-81
2021/05/21 10:35:34;;;;;;;1.85;0.32;;;;;;;10.86;100.00;97036.88;5009594;28;20643;-83
2021/05/21 10:38:38;;;;;;;0.10;0.10;;;;;;;10.88;100.00;97042.63;4989097;28;20049;-80
2021/05/21 10:41:54;;;;;;;1.35;0.10;;;;;;;10.83;100.00;97046.34;4977646;28;20049;-79
2021/05/21 10:45:12;;;;;;;0.22;0.10;;;;;;;10.66;100.00;97049.53;4977680;28;20072;-80
2021/05/21 10:48:25;;;;;;;0.10;0.10;;;;;;;10.55;100.00;97041.44;4965301;28;20432;-81
2021/05/21 10:51:54;;;;;;;0.10;0.10;;;;;;;10.47;100.00;97038.63;4978023;28;20050;-82
2021/05/21 10:55:03;;;;;;;0.25;0.17;;;;;;;10.62;100.00;97038.00;4981556;28;20045;-83
2021/05/21 10:58:14;;;;;;;0.10;0.10;;;;;;;10.74;100.00;97038.47;4967141;28;20072;-81
2021/05/21 11:01:20;;;;;;;0.13;0.13;;;;;;;10.80;100.00;97041.84;4976220;28;20077;-83
2021/05/21 11:04:29;;;;;;;0.10;0.10;;;;;;;10.83;100.00;97041.50;4974003;28;20065;-85
2021/05/21 11:07:38;;;;;;;0.10;0.10;;;;;;;10.81;100.00;97048.88;4986022;28;20049;-83
2021/05/21 11:10:43;;;;;;;0.95;0.10;;;;;;;10.87;100.00;97041.16;4974506;28;20056;-82
2021/05/21 11:14:04;;;;;;;0.10;0.10;;;;;;;10.92;100.00;97043.03;4987441;28;20068;-84
2021/05/21 11:17:25;;;;;;;0.10;0.10;;;;;;;10.87;100.00;97046.72;4987703;28;20263;-81
2021/05/21 11:20:29;;;;;;;0.10;0.10;;;;;;;10.77;100.00;97049.25;4984107;28;20060;-83
2021/05/21 11:24:01;;;;;;;0.10;0.10;;;;;;;10.73;100.00;97048.09;4988637;28;20584;-85
2021/05/21 11:27:06;;;;;;;2.47;0.30;;;;;;;10.84;100.00;97043.00;4993759;28;20048;-85
2021/05/21 11:30:14;;;;;;;0.85;0.80;;;;;;;10.82;100.00;97037.22;4995059;28;20076;-85
2021/05/21 11:33:20;;;;;;;0.30;0.30;;;;;;;10.74;100.00;97046.81;5007548;28;20049;-83
2021/05/21 11:36:26;;;;;;;2.10;0.60;;;;;;;10.84;100.00;97042.25;5002666;28;20045;-82
2021/05/21 11:39:31;;;;;;;1.55;0.50;;;;;;;11.09;100.00;97046.13;5008827;28;20044;-85
2021/05/21 11:42:35;;;;;;;0.22;0.22;;;;;;;11.19;100.00;97036.75;4993905;28;20066;-81
2021/05/21 11:45:39;;;;;;;0.30;0.30;;;;;;;11.11;100.00;97038.00;4996291;28;20049;-78
2021/05/21 11:48:44;;;;;;;0.10;0.10;;;;;;;11.03;100.00;97042.75;4994866;28;20807;-79
2021/05/21 11:52:00;;;;;;;0.10;0.10;;;;;;;11.21;100.00;97036.19;4998440;28;20048;-81
2021/05/21 11:55:04;;;;;;;0.10;0.08;;;;;;;11.18;100.00;97037.28;4995613;28;20127;-81
2021/05/21 11:58:25;;;;;;;0.10;0.10;;;;;;;10.98;100.00;97046.44;4999086;28;20041;-79
2021/05/21 12:01:30;;;;;;;2.30;0.22;;;;;;;10.83;100.00;97035.91;5002197;28;20072;-81
2021/05/21 12:04:40;;;;;;;0.10;0.00;;;;;;;10.80;100.00;97052.97;4993773;28;20061;-80
2021/05/21 12:07:44;;;;;;;1.48;0.10;;;;;;;10.77;100.00;97049.25;4998772;28;20049;-81
2021/05/21 12:10:58;;;;;;;0.73;0.13;;;;;;;10.71;100.00;97043.06;4994616;28;20061;-87
2021/05/21 12:14:07;;;;;;;0.82;0.10;;;;;;;10.75;100.00;97051.81;4983181;28;20048;-83
2021/05/21 12:17:10;;;;;;;0.20;0.20;;;;;;;10.83;100.00;97063.03;4990089;28;20053;-82
2021/05/21 12:20:16;;;;;;;0.15;0.10;;;;;;;10.87;100.00;97063.44;4996301;28;20040;-83
2021/05/21 12:23:31;;;;;;;0.10;0.00;;;;;;;10.72;100.00;97057.75;4985494;28;20060;-84
2021/05/21 12:26:37;;;;;;;0.10;0.10;;;;;;;10.52;100.00;97051.66;4999129;28;20037;-84
2021/05/21 12:29:41;;;;;;;0.25;0.25;;;;;;;10.41;100.00;97054.69;4992999;28;20045;-81
2021/05/21 12:32:45;;;;;;;0.10;0.10;;;;;;;10.44;100.00;97061.19;5000576;28;20048;-83
2021/05/21 12:35:49;;;;;;;0.10;0.10;;;;;;;10.48;100.00;97048.44;4991575;28;20048;-81
2021/05/21 12:38:59;;;;;;;0.10;0.10;;;;;;;10.59;100.00;97059.28;4997069;28;20052;-81
2021/05/21 12:42:04;;;;;;;0.10;0.10;;;;;;;10.71;100.00;97067.38;4988088;28;20868;-81
2021/05/21 12:45:10;;;;;;;0.10;0.10;;;;;;;10.67;100.00;97062.16;4984545;28;20060;-80
2021/05/21 12:48:14;;;;;;;0.20;0.20;;;;;;;10.71;100.00;97061.81;4998681;28;20594;-82
2021/05/21 12:51:20;;;;;;;0.10;0.10;;;;;;;11.05;100.00;97062.44;4998451;28;20040;-81
2021/05/21 12:54:28;;;;;;;0.20;0.20;;;;;;;11.52;100.00;97070.53;4985038;28;20053;-81
2021/05/21 12:57:34;;;;;;;0.30;0.17;;;;;;;11.60;100.00;97065.75;5015586;28;20394;-87
2021/05/21 13:00:39;;;;;;;0.10;0.10;;;;;;;11.59;100.00;97059.41;5021737;28;20056;-86
2021/05/21 13:03:54;;;;;;;0.17;0.17;;;;;;;11.71;100.00;97060.63;5034927;28;20060;-81
2021/05/21 13:06:58;;;;;;;0.10;0.10;;;;;;;11.60;100.00;97055.34;5037549;28;20056;-81
2021/05/21 13:10:08;;;;;;;0.75;0.10;;;;;;;11.27;100.00;97053.50;5031500;28;20401;-82
2021/05/21 13:13:11;;;;;;;0.10;0.10;;;;;;;11.00;100.00;97049.44;5019006;28;20409;-83
2021/05/21 13:16:15;;;;;;;0.10;0.10;;;;;;;10.85;100.00;97054.88;5013374;28;20056;-81
2021/05/21 13:19:30;;;;;;;1.08;0.30;;;;;;;10.66;100.00;97053.06;5020612;28;20052;-80
2021/05/21 13:22:34;;;;;;;0.20;0.10;;;;;;;10.63;100.00;97056.91;5016664;28;20049;-83
2021/05/21 13:25:39;;;;;;;0.20;0.10;;;;;;;10.59;100.00;97059.28;5015493;28;20073;-82
2021/05/21 13:28:43;;;;;;;2.55;0.30;;;;;;;10.62;100.00;97060.25;5034850;28;20068;-80
2021/05/21 13:31:47;;;;;;;1.85;0.17;;;;;;;10.63;100.00;97054.13;5033233;28;20398;-81
2021/05/21 13:34:51;;;;;;;0.10;0.10;;;;;;;10.65;100.00;97071.03;5036811;28;20112;-82
2021/05/21 13:37:59;;;;;;;0.10;0.10;;;;;;;10.64;100.00;97068.81;5021800;28;20418;-83
2021/05/21 13:41:02;;;;;;;2.00;0.47;;;;;;;10.58;100.00;97082.88;5022959;28;20552;-82
2021/05/21 13:44:06;;;;;;;7.35;0.77;;;;;;;10.54;100.00;97071.34;5034129;28;20067;-86
2021/05/21 13:47:10;;;;;;;0.52;0.30;;;;;;;10.52;100.00;97073.91;5022727;28;20048;-87
2021/05/21 13:50:14;;;;;;;2.05;0.30;;;;;;;10.42;100.00;97074.91;5023557;28;20057;-86
2021/05/21 13:53:17;;;;;;;8.07;1.55;;;;;;;10.32;100.00;97071.09;5000425;28;20049;-80
2021/05/21 13:56:21;;;;;;;0.20;0.20;;;;;;;10.20;100.00;97073.38;5019440;28;20056;-83
2021/05/21 13:59:24;;;;;;;4.40;0.40;;;;;;;10.08;100.00;97080.47;5032467;28;20060;-77
2021/05/21 14:02:28;;;;;;;1.38;0.43;;;;;;;10.02;100.00;97073.53;5031731;28;20052;-79
2021/05/21 14:05:32;;;;;;;10.00;1.23;;;;;;;9.99;100.00;97078.13;5019812;28;20115;-78
2021/05/21 14:08:36;;;;;;;4.15;0.75;;;;;;;9.96;100.00;97070.88;5021978;28;20738;-81
2021/05/21 14:11:41;;;;;;;5.30;1.17;;;;;;;9.86;100.00;97075.38;5036053;28;20056;-82
2021/05/21 14:14:46;;;;;;;5.47;0.52;;;;;;;9.80;100.00;97077.53;5034513;28;20048;-82
2021/05/21 14:17:49;;;;;;;2.95;0.77;;;;;;;9.84;100.00;97084.28;5034123;28;20057;-83
2021/05/21 14:20:53;;;;;;;1.27;0.50;;;;;;;9.85;100.00;97068.34;5021273;28;20076;-83
2021/05/21 14:23:59;;;;;;;1.67;0.82;;;;;;;9.93;100.00;97075.50;5031873;28;20433;-85
2021/05/21 14:27:03;;;;;;;0.95;0.30;;;;;;;9.97;100.00;97080.72;5031318;28;20433;-81